F/V Attalaya Berria — FHCB — position and weather

sailwx.info

Track history (hours):
 
Tides and Currents Weather Stations Pressure Air Temp Water Temp Dewpoint Dewpoint Depression Visibility Wind Speed Wind Dir Waves Ship Positions

F/V Attalaya Berria

Last reported at 2016-Jul-20 06:27 UTC. Time now 2016-Jul-24 12:52 UTC.
Position N 43°24' W 001°46'.

Length 26 m.

Type: Fishing. MMSI: 228315000.

Date/timePositionNaut miles runAvg speedWind from/ knotsBaromVisibWave heightAir tempDewpointWater temp
2016-Jul-20 06:27N 43°24' W 001°46'3 3.8
2016-Jul-20 05:34N 43°24' W 001°42'2 1.7
2016-Jul-20 04:31N 43°23' W 001°40'0 0.0
2016-Jul-20 03:33N 43°23' W 001°40'6 0.6
2016-Jul-19 17:33N 43°22' W 001°47'4 4.0
2016-Jul-19 16:33N 43°25' W 001°44'2 2.3
2016-Jul-19 15:34N 43°26' W 001°47'9 8.8
2016-Jul-19 14:32N 43°34' W 001°51'15 2.1
2016-Jul-19 07:27N 43°34' W 002°11'24 8.2
2016-Jul-19 04:33N 43°24' W 001°41'2 1.3
2016-Jul-19 03:22N 43°23' W 001°40'1 0.8
2016-Jul-19 02:32N 43°24' W 001°40'0 0.1
2016-Jul-19 01:33N 43°24' W 001°40'0 0.0
2016-Jul-19 00:28N 43°24' W 001°40'0 0.0
2016-Jul-18 23:33N 43°24' W 001°40'0 0.0
2016-Jul-18 22:33N 43°24' W 001°40'0 0.0
2016-Jul-18 21:33N 43°24' W 001°40'0 0.0
2016-Jul-18 20:33N 43°24' W 001°40'14 0.9
2016-Jul-18 05:29N 43°37' W 001°44'5 5.8
2016-Jul-18 04:33N 43°32' W 001°44'8 7.6
2016-Jul-18 03:33N 43°25' W 001°41'2 1.8
2016-Jul-18 02:33N 43°23' W 001°40'6 5.5
2016-Jul-18 01:33N 43°23' W 001°47'0 0.0
2016-Jul-18 00:33N 43°23' W 001°47'0 0.0
2016-Jul-17 23:33N 43°23' W 001°47'0 0.0
2016-Jul-17 22:33N 43°23' W 001°47'0 0.0
2016-Jul-17 21:33N 43°23' W 001°47'0 0.0
2016-Jul-15 21:08N 43°23' W 001°47'5 0.3
2016-Jul-15 01:32N 43°24' W 001°40'0 0.0
2016-Jul-15 00:22N 43°24' W 001°40'0 0.0
2016-Jul-14 23:27N 43°24' W 001°40'0 0.0
2016-Jul-14 22:31N 43°24' W 001°40'0 0.0
2016-Jul-14 21:33N 43°24' W 001°40'0 0.0
2016-Jul-14 19:32N 43°24' W 001°40'0 0.0
2016-Jul-14 18:33N 43°24' W 001°40'12 5.9
2016-Jul-14 16:33N 43°35' W 001°41'11 0.9
2016-Jul-14 03:32N 43°25' W 001°47'  
2016-Jul-10 20:33N 43°23' W 001°47'5 4.6
2016-Jul-10 19:33N 43°24' W 001°41'1 0.3
2016-Jul-10 17:19N 43°24' W 001°41'  
Track history (hours):
 
Tides and Currents Weather Stations Pressure Air Temp Water Temp Dewpoint Dewpoint Depression Visibility Wind Speed Wind Dir Waves Ship Positions

F/V Attalaya Berria

Last reported at 2016-Jul-20 06:27 UTC. Time now 2016-Jul-24 12:52 UTC.
Position N 43°24' W 001°46'.

Length 26 m.

Type: Fishing. MMSI: 228315000.

Date/timePositionNaut miles runAvg speedWind from/ knotsBaromVisibWave heightAir tempDewpointWater temp
2016-Jul-20 06:27N 43°24' W 001°46'3 3.8
2016-Jul-20 05:34N 43°24' W 001°42'2 1.7
2016-Jul-20 04:31N 43°23' W 001°40'0 0.0
2016-Jul-20 03:33N 43°23' W 001°40'6 0.6
2016-Jul-19 17:33N 43°22' W 001°47'4 4.0
2016-Jul-19 16:33N 43°25' W 001°44'2 2.3
2016-Jul-19 15:34N 43°26' W 001°47'9 8.8
2016-Jul-19 14:32N 43°34' W 001°51'15 2.1
2016-Jul-19 07:27N 43°34' W 002°11'24 8.2
2016-Jul-19 04:33N 43°24' W 001°41'2 1.3
2016-Jul-19 03:22N 43°23' W 001°40'1 0.8
2016-Jul-19 02:32N 43°24' W 001°40'0 0.1
2016-Jul-19 01:33N 43°24' W 001°40'0 0.0
2016-Jul-19 00:28N 43°24' W 001°40'0 0.0
2016-Jul-18 23:33N 43°24' W 001°40'0 0.0
2016-Jul-18 22:33N 43°24' W 001°40'0 0.0
2016-Jul-18 21:33N 43°24' W 001°40'0 0.0
2016-Jul-18 20:33N 43°24' W 001°40'14 0.9
2016-Jul-18 05:29N 43°37' W 001°44'5 5.8
2016-Jul-18 04:33N 43°32' W 001°44'8 7.6
2016-Jul-18 03:33N 43°25' W 001°41'2 1.8
2016-Jul-18 02:33N 43°23' W 001°40'6 5.5
2016-Jul-18 01:33N 43°23' W 001°47'0 0.0
2016-Jul-18 00:33N 43°23' W 001°47'0 0.0
2016-Jul-17 23:33N 43°23' W 001°47'0 0.0
2016-Jul-17 22:33N 43°23' W 001°47'0 0.0
2016-Jul-17 21:33N 43°23' W 001°47'0 0.0
2016-Jul-15 21:08N 43°23' W 001°47'5 0.3
2016-Jul-15 01:32N 43°24' W 001°40'0 0.0
2016-Jul-15 00:22N 43°24' W 001°40'0 0.0
2016-Jul-14 23:27N 43°24' W 001°40'0 0.0
2016-Jul-14 22:31N 43°24' W 001°40'0 0.0
2016-Jul-14 21:33N 43°24' W 001°40'0 0.0
2016-Jul-14 19:32N 43°24' W 001°40'0 0.0
2016-Jul-14 18:33N 43°24' W 001°40'12 5.9
2016-Jul-14 16:33N 43°35' W 001°41'11 0.9
2016-Jul-14 03:32N 43°25' W 001°47'  
2016-Jul-10 20:33N 43°23' W 001°47'5 4.6
2016-Jul-10 19:33N 43°24' W 001°41'1 0.3
2016-Jul-10 17:19N 43°24' W 001°41'  

Dump ship's entire track history